Lingxian, China
Current Conditions -  °F | °C
As of 11:00 PM on Monday 22 Dec 2014 (Local Time) from ZSJN Reporting Station
Haze Haze  
Wind Chill: 27°   Ceiling: Unl
Heat Index: 27°   Visibility: 3mi
Dew Point: 10°   Wind: 2mph
Humidity: 51%   Direction: NA
Pressure: 30.27"   Gusts: NA
Location:  37.33°N, 116.57°E
Report Text: ZSJN 221500Z VRB01MPS 5000 HZ NSC M03/M12 Q1025 NOSIG
Loading
Personal Weather Stations






























Interactive Weather Map New forecast layout! Learn more

10-Day Weather Forecast

Advertisements
Track Severe Weather on mobile